Panama City, FL (32401)

1:40 AM CST on February 10, 2016 (GMT -0600)
The Cove | | Change Station
CLOSE
Current Station
Personal Weather Station
Location: Panama City, FL
Elevation: 15 ft
Nearby Weather Stations

Elev 15 ft 30.16 °N, 85.65 °W | Updated 29 seconds ago

Clear
Clear
37.2 °F
Feels Like 37 °F
N
0.0
Wind Variable Wind from South
Gusts 0.0 mph

Today
High -- | Low -- °F
--% Chance of Precip.
Yesterday
High -- | Low -- °F
Precip. -- in
Pressure 30.16 in
Visibility 10.0 miles
Clouds Clear
Windchill 37 °F
Dew Point 25 °F
Humidity 62%
Rainfall 0.00 in
Snow Depth Not available.
6:27 AM 5:26 PM
Waxing Crescent, 4% visible
METAR KPAM 100658Z AUTO 00000KT 10SM CLR 02/M03 A3015 RMK AO2 SLP213 T00231026 $
Pressure 30.16 in
Visibility 10.0 miles
Clouds Clear
Windchill 37 °F
Dew Point 25 °F
Humidity 62%
Rainfall 0.00 in
Snow Depth Not available.
6:27 AM 5:26 PM
Waxing Crescent, 4% visible
METAR KPAM 100658Z AUTO 00000KT 10SM CLR 02/M03 A3015 RMK AO2 SLP213 T00231026 $

10-Day Weather Forecast

Almanac

Astronomy

Feb. 10, 2016 Rise Set
Actual Time
Civil Twilight
Nautical Twilight
Astronomical Twilight
Moon
Length of Visible Light
Length of Day
Tomorrow will be .
, % of the Moon is Illuminated

Today's Extremes

State Highs State Lows

Community

WunderPhotos

Upload Photos

1,891,826 photos uploaded!

WunderBlog® & News

Nearby

Air Quality

  Air Quality AQ Index Pollutant
Not available.

Snow Depth

Station Depth Elevation

Earthquake Activity

City Distance Mag. Time & Date
Minimum magnitude displayed is 2.5.

Coastal Water Temperatures

Place Temperature

Stations

Nearby Weather Stations

Station Location Temp. Windchill Dew Point Humidity Wind Precip. Elev Updated Type
                   

Watches & Warnings

High Surf Advisory, Coastal Hazard Statement
Issued: 10:20 AM EST Feb. 9, 2016 – National Weather Service

... High surf advisory remains in effect until 4 am EST
Wednesday...
... High rip current risk remains in effect through late tonight...

* surf... peaking around 6 to 7 feet west of the Saint Joseph
Peninsula and south of Tyndall AFB.

Precautionary/preparedness actions...

A high surf advisory means that high surf will affect beaches in
the advisory area... producing localized beach erosion and
dangerous swimming conditions.

There is a high risk of rip currents. Rip currents are powerful
channels of water flowing quickly away from shore... which occur
most often at low spots or breaks in The Sandbar and in the
vicinity of structures such as groins... jetties and piers. Heed
the advice of lifeguards... beach patrol flags and signs.

If you become caught in a rip current... Yell for help. Remain
calm... do not exhaust yourself and stay afloat while waiting for
help. If you have to swim out of a rip current... swim parallel to
shore and back toward the beach when possible. Do not attempt to
swim directly against a rip current as you will tire quickly.